createdAt,value
2017-09-20T00:00:35.514Z,19.58
2017-09-20T00:01:36.161Z,19.51
2017-09-20T00:02:36.811Z,19.63
2017-09-20T00:03:37.462Z,19.59
2017-09-20T00:04:38.104Z,19.58
2017-09-20T00:05:38.748Z,19.51
2017-09-20T00:06:39.391Z,19.47
2017-09-20T00:07:40.045Z,19.40
2017-09-20T00:08:40.885Z,19.47
2017-09-20T00:09:41.532Z,19.55
2017-09-20T00:10:42.184Z,19.40
2017-09-20T00:11:42.836Z,19.44
2017-09-20T00:12:43.548Z,19.47
2017-09-20T00:13:44.188Z,19.45
2017-09-20T00:14:44.834Z,19.45
2017-09-20T00:15:45.478Z,19.45
2017-09-20T00:16:46.329Z,19.45
2017-09-20T00:17:46.971Z,19.44
2017-09-20T00:18:47.617Z,19.44
2017-09-20T00:19:48.269Z,19.44
2017-09-20T00:20:48.916Z,19.41
2017-09-20T00:21:49.565Z,19.34
2017-09-20T00:22:50.211Z,19.34
2017-09-20T00:23:50.858Z,19.39
2017-09-20T00:24:51.505Z,19.39
2017-09-20T00:25:52.295Z,19.39
2017-09-20T00:26:52.942Z,19.36
2017-09-20T00:27:53.592Z,19.39
2017-09-20T00:28:54.235Z,19.33
2017-09-20T00:29:54.879Z,19.39
2017-09-20T00:30:55.525Z,19.34
2017-09-20T00:31:56.171Z,19.34
2017-09-20T00:32:56.817Z,19.36
2017-09-20T00:33:57.711Z,19.29
2017-09-20T00:34:58.365Z,19.27
2017-09-20T00:35:59.011Z,19.29
2017-09-20T00:36:59.658Z,19.33
2017-09-20T00:38:00.298Z,19.26
2017-09-20T00:39:00.951Z,19.33
2017-09-20T00:40:01.591Z,19.24
2017-09-20T00:41:02.239Z,19.22
2017-09-20T00:42:03.092Z,19.21
2017-09-20T00:43:03.746Z,19.21
2017-09-20T00:44:04.457Z,19.29
2017-09-20T00:45:05.098Z,19.21
2017-09-20T00:46:05.753Z,19.24
2017-09-20T00:47:06.392Z,19.26
2017-09-20T00:48:07.037Z,19.22
2017-09-20T00:49:07.686Z,19.22
2017-09-20T00:50:08.833Z,19.19
2017-09-20T00:51:09.482Z,19.24
2017-09-20T00:52:10.121Z,19.22
2017-09-20T00:53:10.768Z,19.27
2017-09-20T00:54:11.413Z,19.19
2017-09-20T00:55:12.057Z,19.19
2017-09-20T00:56:12.709Z,19.22
2017-09-20T00:57:13.349Z,19.18
2017-09-20T00:58:13.994Z,19.19
2017-09-20T00:59:14.840Z,19.22
2017-09-20T01:00:15.485Z,19.24
2017-09-20T01:01:16.133Z,19.19
2017-09-20T01:02:16.775Z,19.18
2017-09-20T01:03:17.431Z,19.19
2017-09-20T01:04:18.081Z,19.21
2017-09-20T01:05:18.725Z,19.29
2017-09-20T01:06:19.374Z,19.21
2017-09-20T01:07:20.215Z,19.21
2017-09-20T01:08:20.865Z,19.22
2017-09-20T01:09:21.513Z,19.26
2017-09-20T01:10:22.158Z,19.26
2017-09-20T01:11:22.801Z,19.19
2017-09-20T01:12:23.447Z,19.18
2017-09-20T01:13:24.094Z,19.18
2017-09-20T01:14:24.738Z,19.15
2017-09-20T01:15:25.583Z,19.19
2017-09-20T01:16:26.233Z,19.19
2017-09-20T01:17:26.884Z,19.22
2017-09-20T01:18:27.525Z,19.19
2017-09-20T01:19:28.238Z,19.14
2017-09-20T01:20:28.886Z,19.12
2017-09-20T01:21:29.523Z,19.12
2017-09-20T01:22:30.171Z,19.16
2017-09-20T01:23:31.019Z,19.18
2017-09-20T01:24:31.662Z,19.21
2017-09-20T01:25:32.318Z,19.21
2017-09-20T01:26:32.964Z,19.19
2017-09-20T01:27:33.604Z,19.21
2017-09-20T01:28:34.260Z,19.21
2017-09-20T01:29:34.904Z,19.14
2017-09-20T01:30:35.545Z,19.18
2017-09-20T01:31:36.489Z,19.11
2017-09-20T01:32:37.133Z,19.16
2017-09-20T01:33:37.784Z,19.14
2017-09-20T01:34:38.425Z,19.18
2017-09-20T01:35:39.069Z,19.14
2017-09-20T01:36:39.715Z,19.16
2017-09-20T01:37:40.370Z,19.15
2017-09-20T01:38:41.013Z,19.11
2017-09-20T01:39:41.652Z,19.09
2017-09-20T01:40:42.499Z,19.09
2017-09-20T01:41:43.143Z,19.09
2017-09-20T01:42:43.792Z,19.07
2017-09-20T01:43:44.439Z,19.09
2017-09-20T01:44:45.089Z,19.09
2017-09-20T01:45:45.734Z,19.08
2017-09-20T01:46:46.377Z,19.04
2017-09-20T01:47:47.033Z,19.14
2017-09-20T01:48:47.828Z,19.07
2017-09-20T01:49:48.472Z,19.09
2017-09-20T01:50:49.113Z,18.99
2017-09-20T01:51:49.765Z,18.95
2017-09-20T01:52:50.404Z,18.98
2017-09-20T01:53:51.055Z,18.95
2017-09-20T01:54:51.708Z,19.02
2017-09-20T01:55:52.347Z,18.99
2017-09-20T01:56:53.369Z,18.95
2017-09-20T01:57:54.075Z,18.99
2017-09-20T01:58:54.718Z,18.98
2017-09-20T01:59:55.370Z,19.00
2017-09-20T02:00:56.011Z,18.98
2017-09-20T02:01:56.656Z,19.00
2017-09-20T02:02:57.300Z,18.99
2017-09-20T02:03:57.946Z,19.02
2017-09-20T02:04:58.747Z,19.00
2017-09-20T02:05:59.388Z,19.02
2017-09-20T02:07:00.039Z,18.98
2017-09-20T02:08:00.692Z,18.98
2017-09-20T02:09:01.338Z,18.99
2017-09-20T02:10:01.985Z,18.98
2017-09-20T02:11:02.626Z,19.00
2017-09-20T02:12:03.276Z,19.00
2017-09-20T02:13:03.919Z,18.98
2017-09-20T02:14:04.765Z,18.98
2017-09-20T02:15:05.417Z,19.00
2017-09-20T02:16:06.060Z,18.96
2017-09-20T02:17:06.708Z,18.98
2017-09-20T02:18:07.352Z,18.89
2017-09-20T02:19:07.995Z,18.89
2017-09-20T02:20:08.641Z,18.88
2017-09-20T02:21:09.285Z,18.86
2017-09-20T02:22:10.128Z,18.99
2017-09-20T02:23:10.776Z,18.96
2017-09-20T02:24:11.421Z,18.84
2017-09-20T02:25:12.070Z,18.86
2017-09-20T02:26:12.718Z,18.90
2017-09-20T02:27:13.370Z,18.95
2017-09-20T02:28:14.018Z,18.93
2017-09-20T02:29:14.661Z,18.89
2017-09-20T02:30:15.459Z,18.89
2017-09-20T02:31:16.106Z,18.96
2017-09-20T02:32:16.754Z,18.93
2017-09-20T02:33:17.394Z,18.89
2017-09-20T02:34:18.038Z,18.89
2017-09-20T02:35:18.687Z,18.90
2017-09-20T02:36:19.329Z,18.90
2017-09-20T02:37:19.973Z,18.89
2017-09-20T02:38:20.867Z,18.93
2017-09-20T02:39:21.514Z,18.92
2017-09-20T02:40:22.158Z,18.92
2017-09-20T02:41:22.808Z,18.90
2017-09-20T02:42:23.450Z,18.90
2017-09-20T02:43:24.101Z,18.96
2017-09-20T02:44:24.739Z,18.90
2017-09-20T02:45:25.384Z,18.90
2017-09-20T02:46:26.177Z,18.98
2017-09-20T02:47:26.854Z,18.89
2017-09-20T02:48:27.468Z,18.93
2017-09-20T02:49:28.120Z,18.90
2017-09-20T02:50:28.774Z,18.93
2017-09-20T02:51:29.411Z,18.89
2017-09-20T02:52:30.061Z,18.90
2017-09-20T02:53:30.714Z,18.89
2017-09-20T02:54:31.364Z,18.90
2017-09-20T02:55:32.204Z,18.86
2017-09-20T02:56:32.849Z,18.96
2017-09-20T02:57:33.491Z,18.84
2017-09-20T02:58:34.142Z,18.95
2017-09-20T02:59:34.788Z,18.92
2017-09-20T03:00:35.427Z,18.93
2017-09-20T03:01:36.079Z,18.96
2017-09-20T03:02:36.722Z,18.90
2017-09-20T03:03:37.572Z,18.92
2017-09-20T03:04:38.218Z,18.90
2017-09-20T03:05:38.862Z,18.90
2017-09-20T03:06:39.508Z,18.89
2017-09-20T03:07:40.153Z,18.92
2017-09-20T03:08:40.799Z,18.93
2017-09-20T03:09:41.452Z,18.90
2017-09-20T03:10:42.091Z,18.92
2017-09-20T03:11:42.943Z,18.93
2017-09-20T03:12:43.605Z,18.90
2017-09-20T03:13:44.247Z,18.90
2017-09-20T03:14:44.895Z,18.92
2017-09-20T03:15:45.541Z,18.89
2017-09-20T03:16:46.187Z,18.86
2017-09-20T03:17:46.827Z,18.88
2017-09-20T03:18:47.479Z,18.90
2017-09-20T03:19:48.321Z,18.95
2017-09-20T03:20:48.972Z,18.93
2017-09-20T03:21:49.619Z,18.84
2017-09-20T03:22:50.268Z,18.90
2017-09-20T03:23:50.907Z,18.86
2017-09-20T03:24:51.616Z,18.89
2017-09-20T03:25:52.261Z,18.86
2017-09-20T03:26:52.903Z,18.90
2017-09-20T03:27:53.547Z,18.90
2017-09-20T03:28:54.391Z,18.86
2017-09-20T03:29:55.042Z,18.89
2017-09-20T03:30:55.685Z,18.88
2017-09-20T03:31:56.327Z,18.89
2017-09-20T03:32:56.974Z,18.88
2017-09-20T03:33:57.623Z,18.89
2017-09-20T03:34:58.275Z,18.89
2017-09-20T03:35:58.919Z,18.86
2017-09-20T03:36:59.718Z,18.88
2017-09-20T03:38:00.361Z,18.89
2017-09-20T03:39:01.005Z,18.92
2017-09-20T03:40:01.657Z,18.95
2017-09-20T03:41:02.297Z,18.88
2017-09-20T03:42:02.943Z,18.83
2017-09-20T03:43:03.589Z,18.84
2017-09-20T03:44:04.236Z,18.89
2017-09-20T03:45:05.081Z,18.86
2017-09-20T03:46:05.727Z,18.88
2017-09-20T03:47:06.372Z,18.86
2017-09-20T03:48:07.025Z,18.89
2017-09-20T03:49:07.668Z,18.84
2017-09-20T03:50:08.316Z,18.89
2017-09-20T03:51:08.965Z,18.90
2017-09-20T03:52:09.618Z,18.81
2017-09-20T03:53:10.505Z,18.84
2017-09-20T03:54:11.153Z,18.84
2017-09-20T03:55:11.810Z,18.84
2017-09-20T03:56:12.455Z,18.88
2017-09-20T03:57:13.106Z,18.86
2017-09-20T03:58:13.744Z,18.88
2017-09-20T03:59:14.389Z,18.90
2017-09-20T04:00:15.037Z,18.88
2017-09-20T04:01:15.984Z,18.83
2017-09-20T04:02:16.625Z,18.84
2017-09-20T04:03:17.276Z,18.88
2017-09-20T04:04:17.925Z,18.88
2017-09-20T04:05:18.576Z,18.86
2017-09-20T04:06:19.218Z,18.75
2017-09-20T04:07:19.860Z,18.80
2017-09-20T04:08:20.505Z,18.88
2017-09-20T04:09:21.151Z,18.84
2017-09-20T04:10:22.058Z,18.83
2017-09-20T04:11:22.705Z,18.83
2017-09-20T04:12:23.347Z,18.80
2017-09-20T04:13:23.990Z,18.83
2017-09-20T04:14:24.634Z,18.84
2017-09-20T04:15:25.283Z,18.88
2017-09-20T04:16:25.929Z,18.90
2017-09-20T04:17:26.570Z,18.90
2017-09-20T04:18:27.418Z,18.98
2017-09-20T04:19:28.069Z,18.84
2017-09-20T04:20:28.709Z,18.95
2017-09-20T04:21:29.360Z,18.95
2017-09-20T04:22:30.008Z,18.88
2017-09-20T04:23:30.649Z,18.99
2017-09-20T04:24:31.291Z,18.95
2017-09-20T04:25:31.936Z,18.90
2017-09-20T04:26:32.788Z,18.88
2017-09-20T04:27:33.429Z,18.86
2017-09-20T04:28:34.074Z,18.86
2017-09-20T04:29:34.718Z,18.95
2017-09-20T04:30:35.363Z,19.00
2017-09-20T04:31:36.007Z,18.88
2017-09-20T04:32:36.652Z,18.86
2017-09-20T04:33:37.297Z,18.90
2017-09-20T04:34:38.193Z,18.95
2017-09-20T04:35:38.840Z,18.98
2017-09-20T04:36:39.485Z,18.90
2017-09-20T04:37:40.138Z,18.95
2017-09-20T04:38:40.785Z,18.96
2017-09-20T04:39:41.431Z,18.93
2017-09-20T04:40:42.077Z,18.93
2017-09-20T04:41:42.722Z,18.89
2017-09-20T04:42:43.369Z,18.86
2017-09-20T04:43:44.362Z,18.83
2017-09-20T04:44:45.006Z,18.86
2017-09-20T04:45:45.656Z,18.83
2017-09-20T04:46:46.304Z,18.86
2017-09-20T04:47:46.946Z,18.88
2017-09-20T04:48:47.596Z,18.86
2017-09-20T04:49:48.243Z,18.81
2017-09-20T04:50:48.884Z,18.88
2017-09-20T04:51:49.728Z,18.80
2017-09-20T04:52:50.375Z,18.75
2017-09-20T04:53:51.026Z,18.80
2017-09-20T04:54:51.668Z,18.77
2017-09-20T04:55:52.313Z,18.73
2017-09-20T04:56:52.969Z,18.75
2017-09-20T04:57:53.613Z,18.77
2017-09-20T04:58:54.260Z,18.78
2017-09-20T04:59:55.107Z,18.77
2017-09-20T05:00:55.756Z,18.71
2017-09-20T05:01:56.408Z,18.75
2017-09-20T05:02:57.047Z,18.77
2017-09-20T05:03:57.690Z,18.75
2017-09-20T05:04:58.404Z,18.74
2017-09-20T05:05:59.053Z,18.73
2017-09-20T05:06:59.694Z,18.73
2017-09-20T05:08:00.538Z,18.74
2017-09-20T05:09:01.188Z,18.77
2017-09-20T05:10:01.836Z,18.73
2017-09-20T05:11:02.482Z,18.78
2017-09-20T05:12:03.133Z,18.74
2017-09-20T05:13:03.773Z,18.71
2017-09-20T05:14:04.419Z,18.75
2017-09-20T05:15:05.067Z,18.71
2017-09-20T05:16:05.912Z,18.73
2017-09-20T05:17:06.559Z,18.78
2017-09-20T05:18:07.205Z,18.73
2017-09-20T05:19:07.847Z,18.74
2017-09-20T05:20:08.497Z,18.77
2017-09-20T05:21:09.149Z,18.77
2017-09-20T05:22:09.794Z,18.81
2017-09-20T05:23:10.443Z,18.71
2017-09-20T05:24:11.093Z,18.73
2017-09-20T05:25:12.090Z,18.71
2017-09-20T05:26:12.734Z,18.83
2017-09-20T05:27:13.376Z,18.78
2017-09-20T05:28:14.024Z,18.78
2017-09-20T05:29:14.666Z,18.77
2017-09-20T05:30:15.318Z,18.77
2017-09-20T05:31:15.960Z,18.73
2017-09-20T05:32:16.605Z,18.73
2017-09-20T05:33:17.500Z,18.75
2017-09-20T05:34:18.152Z,18.71
2017-09-20T05:35:18.801Z,18.68
2017-09-20T05:36:19.442Z,18.77
2017-09-20T05:37:20.088Z,18.75
2017-09-20T05:38:20.733Z,18.65
2017-09-20T05:39:21.385Z,18.63
2017-09-20T05:40:22.026Z,18.66
2017-09-20T05:41:22.920Z,18.71
2017-09-20T05:42:23.566Z,18.66
2017-09-20T05:43:24.212Z,18.62
2017-09-20T05:44:24.860Z,18.63
2017-09-20T05:45:25.503Z,18.65
2017-09-20T05:46:26.151Z,18.65
2017-09-20T05:47:26.798Z,18.62
2017-09-20T05:48:27.439Z,18.63
2017-09-20T05:49:28.340Z,18.63
2017-09-20T05:50:28.988Z,18.63
2017-09-20T05:51:29.641Z,18.63
2017-09-20T05:52:30.279Z,18.60
2017-09-20T05:53:30.928Z,18.59
2017-09-20T05:54:31.570Z,18.62
2017-09-20T05:55:32.214Z,18.58
2017-09-20T05:56:32.864Z,18.60
2017-09-20T05:57:33.503Z,18.62
2017-09-20T05:58:34.348Z,18.62
2017-09-20T05:59:34.994Z,18.68
2017-09-20T06:00:35.642Z,18.56
2017-09-20T06:01:36.283Z,18.56
2017-09-20T06:02:36.928Z,18.60
2017-09-20T06:03:37.570Z,18.52
2017-09-20T06:04:38.226Z,18.58
2017-09-20T06:05:38.869Z,18.53
2017-09-20T06:06:39.515Z,18.58
2017-09-20T06:07:40.162Z,18.52
2017-09-20T06:08:40.804Z,18.70
2017-09-20T06:09:41.450Z,18.49
2017-09-20T06:10:42.092Z,18.58
2017-09-20T06:11:42.749Z,18.60
2017-09-20T06:12:43.393Z,18.56
2017-09-20T06:13:44.034Z,18.65
2017-09-20T06:14:44.890Z,18.56
2017-09-20T06:15:45.534Z,18.66
2017-09-20T06:16:46.182Z,18.66
2017-09-20T06:17:46.820Z,18.68
2017-09-20T06:18:47.464Z,18.63
2017-09-20T06:19:48.108Z,18.66
2017-09-20T06:20:48.752Z,18.63
2017-09-20T06:21:49.395Z,18.63
2017-09-20T06:22:50.187Z,18.59
2017-09-20T06:23:50.840Z,18.56
2017-09-20T06:24:51.485Z,18.63
2017-09-20T06:25:52.129Z,18.52
2017-09-20T06:26:52.777Z,18.56
2017-09-20T06:27:53.423Z,18.58
2017-09-20T06:28:54.063Z,18.65
2017-09-20T06:29:54.718Z,18.65
2017-09-20T06:30:55.559Z,18.74
2017-09-20T06:31:56.235Z,18.75
2017-09-20T06:32:56.849Z,18.77
2017-09-20T06:33:57.496Z,18.86
2017-09-20T06:34:58.144Z,18.86
2017-09-20T06:35:58.787Z,18.81
2017-09-20T06:37:42.930Z,18.98
2017-09-20T06:38:43.578Z,18.89
2017-09-20T06:39:44.376Z,18.96
2017-09-20T06:40:45.026Z,18.90
2017-09-20T06:41:45.672Z,18.96
2017-09-20T06:42:46.315Z,18.98
2017-09-20T06:43:46.966Z,18.90
2017-09-20T06:44:47.612Z,18.96
2017-09-20T06:45:48.257Z,18.86
2017-09-20T06:46:48.902Z,18.98
2017-09-20T06:47:49.745Z,19.00
2017-09-20T06:48:50.400Z,19.02
2017-09-20T06:49:51.050Z,19.00
2017-09-20T06:50:51.693Z,18.99
2017-09-20T06:51:52.350Z,18.96
2017-09-20T06:52:52.999Z,19.02
2017-09-20T06:53:53.645Z,18.98
2017-09-20T06:54:54.290Z,18.99
2017-09-20T06:55:55.141Z,19.02
2017-09-20T06:56:55.788Z,18.99
2017-09-20T06:57:56.429Z,18.95
2017-09-20T06:58:57.077Z,18.95
2017-09-20T06:59:57.722Z,19.00
2017-09-20T07:00:58.377Z,18.90
2017-09-20T07:01:59.022Z,18.95
2017-09-20T07:02:59.669Z,18.86
2017-09-20T07:04:00.315Z,18.88
2017-09-20T07:05:01.163Z,18.77
2017-09-20T07:06:01.802Z,18.71
2017-09-20T07:07:02.446Z,18.63
2017-09-20T07:08:03.091Z,18.60
2017-09-20T07:09:03.741Z,18.63
2017-09-20T07:10:04.384Z,18.56
2017-09-20T07:11:05.033Z,18.55
2017-09-20T07:12:05.676Z,18.56
2017-09-20T07:13:06.522Z,18.56
2017-09-20T07:14:07.167Z,18.55
2017-09-20T07:15:07.818Z,18.58
2017-09-20T07:16:08.458Z,18.60
2017-09-20T07:17:09.106Z,18.53
2017-09-20T07:18:09.748Z,18.56
2017-09-20T07:19:10.404Z,18.66
2017-09-20T07:20:11.046Z,18.60
2017-09-20T07:21:11.895Z,18.55
2017-09-20T07:22:12.540Z,18.59
2017-09-20T07:23:13.200Z,18.65
2017-09-20T07:24:13.843Z,18.63
2017-09-20T07:25:14.481Z,18.65
2017-09-20T07:26:15.129Z,18.62
2017-09-20T07:27:15.771Z,18.62
2017-09-20T07:28:16.416Z,18.63
2017-09-20T07:29:17.413Z,18.75
2017-09-20T07:30:18.060Z,18.68
2017-09-20T07:31:18.707Z,18.62
2017-09-20T07:32:19.347Z,18.68
2017-09-20T07:33:19.999Z,18.66
2017-09-20T07:34:20.647Z,18.62
2017-09-20T07:35:21.287Z,18.59
2017-09-20T07:36:21.938Z,18.62
2017-09-20T07:37:22.578Z,18.62
2017-09-20T07:38:23.372Z,18.65
2017-09-20T07:39:24.019Z,18.66
2017-09-20T07:40:24.664Z,18.60
2017-09-20T07:41:25.314Z,18.60
2017-09-20T07:42:25.954Z,18.60
2017-09-20T07:43:26.610Z,18.70
2017-09-20T07:44:27.259Z,18.63
2017-09-20T07:45:27.897Z,18.63
2017-09-20T07:46:28.741Z,18.59
2017-09-20T07:47:29.387Z,18.59
2017-09-20T07:48:30.037Z,18.56
2017-09-20T07:49:30.686Z,18.58
2017-09-20T07:50:31.328Z,18.60
2017-09-20T07:51:31.978Z,18.50
2017-09-20T07:52:32.623Z,18.58
2017-09-20T07:53:33.331Z,18.56
2017-09-20T07:54:34.279Z,18.65
2017-09-20T07:55:34.920Z,18.56
2017-09-20T07:56:35.564Z,18.53
2017-09-20T07:57:36.214Z,18.59
2017-09-20T07:58:36.859Z,18.58
2017-09-20T07:59:37.501Z,18.62
2017-09-20T08:00:38.145Z,18.65
2017-09-20T08:01:38.795Z,18.50
2017-09-20T08:02:39.635Z,18.65
2017-09-20T08:03:40.279Z,18.65
2017-09-20T08:04:40.926Z,18.62
2017-09-20T08:05:41.575Z,18.56
2017-09-20T08:06:42.227Z,18.66
2017-09-20T08:07:42.864Z,18.63
2017-09-20T08:08:43.520Z,18.56
2017-09-20T08:09:44.168Z,18.63
2017-09-20T08:10:45.012Z,18.53
2017-09-20T08:11:45.661Z,18.52
2017-09-20T08:12:46.299Z,18.60
2017-09-20T08:13:46.950Z,18.63
2017-09-20T08:14:47.592Z,18.58
2017-09-20T08:15:48.238Z,18.53
2017-09-20T08:16:48.880Z,18.52
2017-09-20T08:17:49.530Z,18.53
2017-09-20T08:18:50.172Z,18.53
2017-09-20T08:19:51.022Z,18.52
2017-09-20T08:20:51.663Z,18.47
2017-09-20T08:21:52.314Z,18.59
2017-09-20T08:22:52.955Z,18.58
2017-09-20T08:23:53.676Z,18.58
2017-09-20T08:24:54.316Z,18.68
2017-09-20T08:25:54.960Z,18.65
2017-09-20T08:26:55.611Z,18.60
2017-09-20T08:27:56.457Z,18.65
2017-09-20T08:28:57.115Z,18.66
2017-09-20T08:29:57.752Z,18.62
2017-09-20T08:30:58.404Z,18.58
2017-09-20T08:31:59.051Z,18.66
2017-09-20T08:32:59.698Z,18.63
2017-09-20T08:34:00.345Z,18.66
2017-09-20T08:35:00.996Z,18.59
2017-09-20T08:36:01.796Z,18.66
2017-09-20T08:37:02.438Z,18.63
2017-09-20T08:38:03.149Z,18.70
2017-09-20T08:39:03.789Z,18.63
2017-09-20T08:40:04.434Z,18.66
2017-09-20T08:41:05.078Z,18.66
2017-09-20T08:42:05.727Z,18.65
2017-09-20T08:43:06.369Z,18.68
2017-09-20T08:44:07.314Z,18.78
2017-09-20T08:45:07.958Z,18.75
2017-09-20T08:46:08.606Z,18.75
2017-09-20T08:47:09.254Z,18.74
2017-09-20T08:48:09.898Z,18.84
2017-09-20T08:49:10.554Z,18.73
2017-09-20T08:50:11.190Z,18.80
2017-09-20T08:51:11.834Z,18.70
2017-09-20T08:52:12.682Z,18.73
2017-09-20T08:53:13.325Z,18.74
2017-09-20T08:54:13.971Z,18.66
2017-09-20T08:55:14.617Z,18.75
2017-09-20T08:56:15.262Z,18.74
2017-09-20T08:57:15.908Z,18.77
2017-09-20T08:58:16.558Z,18.75
2017-09-20T08:59:17.198Z,18.77
2017-09-20T09:00:17.843Z,18.73
2017-09-20T09:01:18.690Z,18.73
2017-09-20T09:02:19.333Z,18.75
2017-09-20T09:03:19.984Z,18.71
2017-09-20T09:04:20.625Z,18.74
2017-09-20T09:05:21.270Z,18.71
2017-09-20T09:06:21.916Z,18.75
2017-09-20T09:07:22.560Z,18.75
2017-09-20T09:08:23.205Z,18.74
2017-09-20T09:09:24.000Z,18.74
2017-09-20T09:10:24.652Z,18.75
2017-09-20T09:11:25.301Z,18.78
2017-09-20T09:12:25.948Z,18.81
2017-09-20T09:13:26.540Z,18.75
2017-09-20T09:14:27.192Z,18.77
2017-09-20T09:15:27.847Z,18.78
2017-09-20T09:16:28.494Z,18.81
2017-09-20T09:17:29.548Z,18.81
2017-09-20T09:18:30.201Z,18.81
2017-09-20T09:19:30.845Z,18.78
2017-09-20T09:20:31.497Z,18.77
2017-09-20T09:21:32.141Z,18.84
2017-09-20T09:22:32.791Z,18.78
2017-09-20T09:23:33.433Z,18.86
2017-09-20T09:24:34.078Z,18.80
2017-09-20T09:25:34.924Z,18.86
2017-09-20T09:26:35.569Z,18.83
2017-09-20T09:27:36.217Z,18.80
2017-09-20T09:28:36.868Z,18.80
2017-09-20T09:29:37.521Z,18.89
2017-09-20T09:30:38.165Z,18.80
2017-09-20T09:31:38.807Z,18.89
2017-09-20T09:32:39.460Z,18.83
2017-09-20T09:33:40.108Z,18.88
2017-09-20T09:34:41.011Z,18.96
2017-09-20T09:35:41.656Z,18.89
2017-09-20T09:36:42.297Z,18.96
2017-09-20T09:37:42.947Z,18.92
2017-09-20T09:38:43.600Z,18.92
2017-09-20T09:39:44.250Z,18.93
2017-09-20T09:40:44.891Z,18.96
2017-09-20T09:41:45.544Z,18.99
2017-09-20T09:42:46.388Z,19.00
2017-09-20T09:43:47.040Z,19.02
2017-09-20T09:44:47.690Z,19.14
2017-09-20T09:45:48.341Z,19.07
2017-09-20T09:46:48.984Z,19.08
2017-09-20T09:47:49.627Z,19.14
2017-09-20T09:48:50.280Z,19.07
2017-09-20T09:49:50.929Z,19.07
2017-09-20T09:50:51.720Z,19.12
2017-09-20T09:51:52.376Z,19.11
2017-09-20T09:52:53.028Z,19.12
2017-09-20T09:53:53.674Z,19.14
2017-09-20T09:54:54.315Z,19.16
2017-09-20T09:55:54.959Z,19.19
2017-09-20T09:56:55.614Z,19.15
2017-09-20T09:57:56.257Z,19.26
2017-09-20T09:58:57.000Z,19.22
2017-09-20T09:59:57.644Z,19.21
2017-09-20T10:00:58.292Z,19.22
2017-09-20T10:01:58.941Z,19.16
2017-09-20T10:02:59.583Z,19.19
2017-09-20T10:04:00.228Z,19.16
2017-09-20T10:05:00.880Z,19.21
2017-09-20T10:06:01.528Z,19.16
2017-09-20T10:07:02.369Z,19.26
2017-09-20T10:08:03.016Z,19.26
2017-09-20T10:09:03.662Z,19.18
2017-09-20T10:10:04.307Z,19.19
2017-09-20T10:11:04.958Z,19.22
2017-09-20T10:12:05.602Z,19.19
2017-09-20T10:13:06.253Z,19.21
2017-09-20T10:14:06.895Z,19.16
2017-09-20T10:15:07.544Z,19.22
2017-09-20T10:16:08.391Z,19.19
2017-09-20T10:17:09.039Z,19.19
2017-09-20T10:18:09.686Z,19.22
2017-09-20T10:19:10.332Z,19.27
2017-09-20T10:20:10.980Z,19.24
2017-09-20T10:21:11.620Z,19.18
2017-09-20T10:22:12.266Z,19.11
2017-09-20T10:23:12.918Z,19.26
2017-09-20T10:24:13.761Z,19.24
2017-09-20T10:25:14.408Z,19.14
2017-09-20T10:26:15.058Z,19.19
2017-09-20T10:27:15.700Z,19.18
2017-09-20T10:28:16.347Z,19.09
2017-09-20T10:29:16.989Z,19.08
2017-09-20T10:30:17.635Z,19.16
2017-09-20T10:31:18.297Z,19.16
2017-09-20T10:32:19.279Z,19.15
2017-09-20T10:33:19.926Z,19.18
2017-09-20T10:34:20.576Z,19.15
2017-09-20T10:35:21.233Z,19.07
2017-09-20T10:36:21.880Z,19.18
2017-09-20T10:37:22.528Z,19.07
2017-09-20T10:38:23.176Z,19.15
2017-09-20T10:39:23.831Z,19.18
2017-09-20T10:40:24.670Z,19.18
2017-09-20T10:41:25.323Z,19.15
2017-09-20T10:42:25.966Z,19.22
2017-09-20T10:43:26.617Z,19.24
2017-09-20T10:44:27.264Z,19.14
2017-09-20T10:45:27.905Z,19.18
2017-09-20T10:46:28.557Z,19.11
2017-09-20T10:47:29.199Z,19.24
2017-09-20T10:48:29.846Z,19.18
2017-09-20T10:49:30.692Z,19.27
2017-09-20T10:50:31.337Z,19.22
2017-09-20T10:51:31.984Z,19.33
2017-09-20T10:52:32.629Z,19.33
2017-09-20T10:53:33.277Z,19.31
2017-09-20T10:54:33.923Z,19.31
2017-09-20T10:55:34.569Z,19.29
2017-09-20T10:56:35.215Z,19.39
2017-09-20T10:57:36.010Z,19.40
2017-09-20T10:58:36.664Z,19.36
2017-09-20T10:59:37.308Z,19.39
2017-09-20T11:00:37.952Z,19.44
2017-09-20T11:01:38.597Z,19.48
2017-09-20T11:02:39.240Z,19.52
2017-09-20T11:03:39.887Z,19.55
2017-09-20T11:04:40.532Z,19.56
2017-09-20T11:05:42.982Z,19.55
2017-09-20T11:06:43.627Z,19.58
2017-09-20T11:07:44.272Z,19.67
2017-09-20T11:08:44.929Z,19.66
2017-09-20T11:09:45.579Z,19.73
2017-09-20T11:10:46.229Z,19.77
2017-09-20T11:11:46.876Z,19.73
2017-09-20T11:12:47.531Z,19.70
2017-09-20T11:13:48.372Z,19.71
2017-09-20T11:14:49.026Z,19.69
2017-09-20T11:15:49.675Z,19.71
2017-09-20T11:16:50.323Z,19.77
2017-09-20T11:17:50.970Z,19.82
2017-09-20T11:18:51.618Z,19.85
2017-09-20T11:19:52.261Z,19.86
2017-09-20T11:20:52.906Z,19.86
2017-09-20T11:21:53.702Z,19.89
2017-09-20T11:22:54.349Z,19.88
2017-09-20T11:23:54.998Z,19.91
2017-09-20T11:24:55.643Z,19.96
2017-09-20T11:25:56.290Z,20.00
2017-09-20T11:26:56.941Z,19.92
2017-09-20T11:27:57.652Z,19.92
2017-09-20T11:28:58.296Z,20.02
2017-09-20T11:29:58.948Z,20.07
2017-09-20T11:31:05.898Z,20.02
2017-09-20T11:32:06.540Z,20.04
2017-09-20T11:33:07.188Z,20.13
2017-09-20T11:34:07.838Z,20.10
2017-09-20T11:35:08.487Z,20.16
2017-09-20T11:36:09.131Z,20.13
2017-09-20T11:37:09.777Z,20.10
2017-09-20T11:38:10.420Z,20.18
2017-09-20T11:39:11.323Z,20.18
2017-09-20T11:40:11.965Z,20.19
2017-09-20T11:41:12.611Z,20.14
2017-09-20T11:42:13.263Z,20.16
2017-09-20T11:43:13.912Z,20.18
2017-09-20T11:44:14.561Z,20.14
2017-09-20T11:45:15.203Z,20.18
2017-09-20T11:46:15.849Z,20.14
2017-09-20T11:47:16.645Z,20.16
2017-09-20T11:48:17.298Z,20.14
2017-09-20T11:49:17.942Z,20.16
2017-09-20T11:50:18.595Z,20.14
2017-09-20T11:51:19.244Z,20.14
2017-09-20T11:52:19.953Z,20.19
2017-09-20T11:53:20.603Z,20.19
2017-09-20T11:54:21.250Z,20.21
2017-09-20T11:55:22.148Z,20.14
2017-09-20T11:56:22.796Z,20.21
2017-09-20T11:57:23.438Z,20.19
2017-09-20T11:58:24.085Z,20.10
2017-09-20T11:59:24.735Z,20.19
2017-09-20T12:00:25.380Z,20.22
2017-09-20T12:01:26.024Z,20.22
2017-09-20T12:02:26.672Z,20.24
2017-09-20T12:03:27.467Z,20.22
2017-09-20T12:04:28.117Z,20.28
2017-09-20T12:05:28.763Z,20.28
2017-09-20T12:06:29.417Z,20.31
2017-09-20T12:07:30.067Z,20.31
2017-09-20T12:08:30.709Z,20.29
2017-09-20T12:09:31.354Z,20.29
2017-09-20T12:10:32.007Z,20.34
2017-09-20T12:11:32.656Z,20.28
2017-09-20T12:12:33.562Z,20.31
2017-09-20T12:13:34.218Z,20.28
2017-09-20T12:14:34.869Z,20.24
2017-09-20T12:15:35.513Z,20.26
2017-09-20T12:16:36.155Z,20.32
2017-09-20T12:17:36.812Z,20.31
2017-09-20T12:18:37.454Z,20.31
2017-09-20T12:19:38.102Z,20.32
2017-09-20T12:20:39.006Z,20.39
2017-09-20T12:21:39.656Z,20.34
2017-09-20T12:22:40.308Z,20.39
2017-09-20T12:23:40.950Z,20.34
2017-09-20T12:24:41.599Z,20.39
2017-09-20T12:25:42.246Z,20.40
2017-09-20T12:26:42.891Z,20.37
2017-09-20T12:27:43.543Z,20.40
2017-09-20T12:28:44.336Z,20.41
2017-09-20T12:29:44.983Z,20.41
2017-09-20T12:30:45.630Z,20.47
2017-09-20T12:31:46.277Z,20.41
2017-09-20T12:32:46.929Z,20.50
2017-09-20T12:33:47.575Z,20.44
2017-09-20T12:34:48.234Z,20.44
2017-09-20T12:35:48.885Z,20.50
2017-09-20T12:36:49.731Z,20.47
2017-09-20T12:37:50.382Z,20.47
2017-09-20T12:38:51.023Z,20.44
2017-09-20T12:39:51.674Z,20.44
2017-09-20T12:40:52.325Z,20.48
2017-09-20T12:41:52.984Z,20.50
2017-09-20T12:42:53.613Z,20.44
2017-09-20T12:43:54.262Z,20.52
2017-09-20T12:44:54.910Z,20.41
2017-09-20T12:45:55.756Z,20.56
2017-09-20T12:46:56.403Z,20.50
2017-09-20T12:47:57.052Z,20.55
2017-09-20T12:48:57.704Z,20.51
2017-09-20T12:49:58.345Z,20.50
2017-09-20T12:50:58.999Z,20.50
2017-09-20T12:51:59.642Z,20.51
2017-09-20T12:53:00.290Z,20.51
2017-09-20T12:54:01.088Z,20.55
2017-09-20T12:55:01.743Z,20.51
2017-09-20T12:56:02.388Z,20.52
2017-09-20T12:57:03.045Z,20.51
2017-09-20T12:58:03.690Z,20.48
2017-09-20T12:59:04.333Z,20.48
2017-09-20T13:00:04.992Z,20.50
2017-09-20T13:01:05.638Z,20.56
2017-09-20T13:02:06.480Z,20.44